< < Back
Terminal Aerodrome Forecast


Current Version              Previous Versions:   1  2  3  4  5  6  7  8  9  

Terminal Aerodrome Forecast

456
FTUS42 KILM 272320
TAFFLO
TAF
KFLO 272320Z 2800/2824 22008KT P6SM SKC
     FM281600 25012G18KT P6SM SKC
     FM282200 25009KT P6SM SKC=

Latest METAR

795
SAUS70 KWBC 281000 RRH
MTRFLO
METAR KFLO 280953Z AUTO 24005KT 10SM CLR 27/22 A2996 RMK AO2 SLP141
T02670217


USA.gov is the U.S. government's official web portal to all federal, state and local government web resources and services.